Time,TemperatureF,DewpointF,PressureIn,WindDirection,WindDirectionDegrees,WindSpeedMPH,WindSpeedGustMPH,Humidity,HourlyPrecipIn,Conditions,Clouds,dailyrainin,SoftwareType,DateUTC
2013-02-23 00:00:00,35.1,30.8,30.03,ESE,113,0.0,3.0,84,0.00,,,0.00,Wunderground v.1.13,2013-02-23 05:00:00,
2013-02-23 00:05:00,35.1,30.8,30.03,ESE,113,0.0,1.0,84,0.00,,,0.00,Wunderground v.1.13,2013-02-23 05:05:00,
2013-02-23 00:10:00,35.1,30.8,30.03,ESE,113,0.0,1.0,84,0.00,,,0.00,Wunderground v.1.13,2013-02-23 05:10:00,
2013-02-23 00:15:00,35.1,30.8,30.03,ESE,113,0.0,1.0,84,0.00,,,0.00,Wunderground v.1.13,2013-02-23 05:15:00,
2013-02-23 00:25:00,34.9,30.6,30.02,ESE,118,0.0,1.0,84,0.00,,,0.00,Wunderground v.1.13,2013-02-23 05:25:00,
2013-02-23 00:30:00,34.8,30.5,30.02,ESE,118,0.0,1.0,84,0.00,,,0.00,Wunderground v.1.13,2013-02-23 05:30:00,
2013-02-23 00:40:00,34.7,30.4,30.01,ESE,118,0.0,0.0,84,0.00,,,0.00,Wunderground v.1.13,2013-02-23 05:40:00,
2013-02-23 00:50:00,34.4,30.1,30.01,ESE,118,0.0,0.0,84,0.00,,,0.00,Wunderground v.1.13,2013-02-23 05:50:00,
2013-02-23 01:00:00,34.4,30.1,30.02,ESE,118,0.0,0.0,84,0.00,,,0.00,Wunderground v.1.13,2013-02-23 06:00:00,
2013-02-23 01:05:00,34.4,30.1,30.02,ESE,118,0.0,0.0,84,0.00,,,0.00,Wunderground v.1.13,2013-02-23 06:05:00,
2013-02-23 01:15:00,34.1,30.1,30.02,ESE,118,0.0,0.0,85,0.00,,,0.00,Wunderground v.1.13,2013-02-23 06:15:00,
2013-02-23 01:25:00,33.9,29.9,30.01,ESE,118,0.0,0.0,85,0.00,,,0.00,Wunderground v.1.13,2013-02-23 06:25:00,
2013-02-23 01:30:00,33.8,29.8,30.00,ESE,118,0.0,0.0,85,0.00,,,0.00,Wunderground v.1.13,2013-02-23 06:30:00,
2013-02-23 01:40:00,33.7,29.7,30.01,ESE,118,0.0,0.0,85,0.00,,,0.00,Wunderground v.1.13,2013-02-23 06:40:00,
2013-02-23 01:50:00,33.6,29.9,30.01,ESE,118,0.0,0.0,86,0.00,,,0.00,Wunderground v.1.13,2013-02-23 06:50:00,
2013-02-23 02:00:00,33.4,29.7,30.01,ESE,118,0.0,0.0,86,0.00,,,0.00,Wunderground v.1.13,2013-02-23 07:00:00,
2013-02-23 02:05:00,33.3,29.6,30.01,ESE,118,0.0,0.0,86,0.00,,,0.00,Wunderground v.1.13,2013-02-23 07:05:00,
2013-02-23 02:15:00,33.2,29.5,30.01,ESE,118,0.0,0.0,86,0.00,,,0.00,Wunderground v.1.13,2013-02-23 07:15:00,
2013-02-23 02:25:00,33.0,29.3,30.00,ESE,118,0.0,0.0,86,0.00,,,0.00,Wunderground v.1.13,2013-02-23 07:25:00,
2013-02-23 02:35:00,33.0,29.6,30.00,ESE,118,0.0,0.0,87,0.00,,,0.00,Wunderground v.1.13,2013-02-23 07:35:00,
2013-02-23 02:45:00,32.8,29.4,29.99,ESE,118,0.0,0.0,87,0.00,,,0.00,Wunderground v.1.13,2013-02-23 07:45:00,
2013-02-23 02:55:00,32.6,29.2,29.98,ESE,118,0.0,0.0,87,0.00,,,0.00,Wunderground v.1.13,2013-02-23 07:55:00,
2013-02-23 03:00:00,32.5,28.8,29.98,ESE,118,0.0,0.0,86,0.00,,,0.00,Wunderground v.1.13,2013-02-23 08:00:00,
2013-02-23 03:05:00,32.3,28.6,29.98,ESE,118,0.0,0.0,86,0.00,,,0.00,Wunderground v.1.13,2013-02-23 08:05:00,
2013-02-23 03:15:00,32.1,28.7,29.97,ESE,118,0.0,0.0,87,0.00,,,0.00,Wunderground v.1.13,2013-02-23 08:15:00,
2013-02-23 03:25:00,31.8,28.4,29.97,ESE,118,0.0,1.0,87,0.00,,,0.00,Wunderground v.1.13,2013-02-23 08:25:00,
2013-02-23 03:35:00,31.7,28.3,29.97,ESE,118,0.0,0.0,87,0.00,,,0.00,Wunderground v.1.13,2013-02-23 08:35:00,
2013-02-23 03:45:00,31.7,28.6,29.97,ESE,118,0.0,0.0,88,0.00,,,0.00,Wunderground v.1.13,2013-02-23 08:45:00,
2013-02-23 03:55:00,31.8,28.7,29.96,ESE,118,0.0,0.0,88,0.00,,,0.00,Wunderground v.1.13,2013-02-23 08:55:00,
2013-02-23 04:00:00,31.9,28.8,29.96,ESE,118,0.0,0.0,88,0.00,,,0.00,Wunderground v.1.13,2013-02-23 09:00:00,
2013-02-23 04:05:00,31.9,28.8,29.96,ESE,118,0.0,0.0,88,0.00,,,0.00,Wunderground v.1.13,2013-02-23 09:05:00,
2013-02-23 04:15:00,32.1,29.2,29.95,ESE,118,0.0,0.0,89,0.00,,,0.00,Wunderground v.1.13,2013-02-23 09:15:00,
2013-02-23 04:25:00,32.1,29.2,29.96,ESE,118,0.0,0.0,89,0.00,,,0.00,Wunderground v.1.13,2013-02-23 09:25:00,
2013-02-23 04:30:00,32.2,29.3,29.96,ESE,118,0.0,0.0,89,0.00,,,0.00,Wunderground v.1.13,2013-02-23 09:30:00,
2013-02-23 04:40:00,32.2,29.3,29.96,ESE,118,0.0,0.0,89,0.00,,,0.00,Wunderground v.1.13,2013-02-23 09:40:00,
2013-02-23 04:45:00,32.2,29.3,29.96,ESE,118,0.0,0.0,89,0.00,,,0.00,Wunderground v.1.13,2013-02-23 09:45:00,
2013-02-23 04:55:00,32.2,29.3,29.97,ESE,118,0.0,0.0,89,0.00,,,0.00,Wunderground v.1.13,2013-02-23 09:55:00,
2013-02-23 05:00:00,32.3,29.4,29.96,ESE,118,0.0,0.0,89,0.00,,,0.00,Wunderground v.1.13,2013-02-23 10:00:00,
2013-02-23 05:05:00,32.3,29.4,29.97,ESE,118,0.0,0.0,89,0.00,,,0.00,Wunderground v.1.13,2013-02-23 10:05:00,
2013-02-23 05:15:00,32.3,29.4,29.97,ESE,118,0.0,0.0,89,0.00,,,0.00,Wunderground v.1.13,2013-02-23 10:15:00,
2013-02-23 05:25:00,32.4,29.5,29.96,ESE,118,0.0,0.0,89,0.00,,,0.00,Wunderground v.1.13,2013-02-23 10:25:00,
2013-02-23 05:30:00,32.4,29.5,29.97,ESE,118,0.0,0.0,89,0.00,,,0.00,Wunderground v.1.13,2013-02-23 10:30:00,
2013-02-23 05:35:00,32.4,29.5,29.97,ESE,118,0.0,0.0,89,0.00,,,0.00,Wunderground v.1.13,2013-02-23 10:35:00,
2013-02-23 05:45:00,32.5,29.6,29.97,ESE,118,0.0,0.0,89,0.00,,,0.00,Wunderground v.1.13,2013-02-23 10:45:00,
2013-02-23 05:55:00,32.5,29.6,29.96,ESE,118,0.0,0.0,89,0.00,,,0.00,Wunderground v.1.13,2013-02-23 10:55:00,
2013-02-23 06:00:00,32.5,29.6,29.96,ESE,118,0.0,0.0,89,0.00,,,0.00,Wunderground v.1.13,2013-02-23 11:00:00,
2013-02-23 06:05:00,32.5,29.6,29.97,ESE,118,0.0,0.0,89,0.00,,,0.00,Wunderground v.1.13,2013-02-23 11:05:00,
2013-02-23 06:15:00,32.5,29.6,29.96,ESE,118,0.0,0.0,89,0.00,,,0.00,Wunderground v.1.13,2013-02-23 11:15:00,
2013-02-23 06:20:00,32.5,29.6,29.96,ESE,118,0.0,0.0,89,0.00,,,0.00,Wunderground v.1.13,2013-02-23 11:20:00,
2013-02-23 06:25:00,32.5,29.6,29.96,ESE,118,0.0,0.0,89,0.00,,,0.00,Wunderground v.1.13,2013-02-23 11:25:00,
2013-02-23 06:35:00,32.5,29.6,29.97,ESE,118,0.0,0.0,89,0.00,,,0.00,Wunderground v.1.13,2013-02-23 11:35:00,
2013-02-23 06:45:00,32.5,29.6,29.97,ESE,118,0.0,0.0,89,0.00,,,0.00,Wunderground v.1.13,2013-02-23 11:45:00,
2013-02-23 06:55:00,32.6,29.7,29.97,ESE,118,0.0,0.0,89,0.00,,,0.00,Wunderground v.1.13,2013-02-23 11:55:00,
2013-02-23 07:05:00,32.7,29.8,29.96,ESE,118,0.0,0.0,89,0.00,,,0.00,Wunderground v.1.13,2013-02-23 12:05:00,
2013-02-23 07:15:00,32.8,29.9,29.97,ESE,118,0.0,0.0,89,0.00,,,0.00,Wunderground v.1.13,2013-02-23 12:15:00,
2013-02-23 07:20:00,32.8,29.9,29.96,ESE,118,0.0,0.0,89,0.00,,,0.00,Wunderground v.1.13,2013-02-23 12:20:00,
2013-02-23 07:30:00,32.9,30.0,29.96,ESE,118,0.0,0.0,89,0.00,,,0.00,Wunderground v.1.13,2013-02-23 12:30:00,
2013-02-23 07:35:00,33.0,30.1,29.96,ESE,118,0.0,0.0,89,0.00,,,0.00,Wunderground v.1.13,2013-02-23 12:35:00,
2013-02-23 07:45:00,33.1,30.2,29.95,ESE,118,0.0,0.0,89,0.00,,,0.00,Wunderground v.1.13,2013-02-23 12:45:00,
2013-02-23 07:55:00,33.3,30.7,29.96,ESE,118,0.0,0.0,90,0.00,,,0.00,Wunderground v.1.13,2013-02-23 12:55:00,
2013-02-23 08:05:00,33.4,30.8,29.96,ESE,118,0.0,0.0,90,0.00,,,0.00,Wunderground v.1.13,2013-02-23 13:05:00,
2013-02-23 08:15:00,33.6,31.0,29.96,ESE,118,0.0,0.0,90,0.00,,,0.00,Wunderground v.1.13,2013-02-23 13:15:00,
2013-02-23 08:25:00,33.8,30.9,29.97,SW,215,0.0,2.0,89,0.00,,,0.00,Wunderground v.1.13,2013-02-23 13:25:00,
2013-02-23 08:30:00,33.9,31.3,29.97,SW,216,0.0,0.0,90,0.00,,,0.00,Wunderground v.1.13,2013-02-23 13:30:00,
2013-02-23 08:40:00,34.2,31.3,29.97,SW,216,0.0,0.0,89,0.00,,,0.00,Wunderground v.1.13,2013-02-23 13:40:00,
2013-02-23 08:45:00,34.4,31.5,29.97,SW,216,0.0,1.0,89,0.00,,,0.00,Wunderground v.1.13,2013-02-23 13:45:00,
2013-02-23 08:55:00,34.4,31.5,29.97,SW,215,0.0,0.0,89,0.00,,,0.00,Wunderground v.1.13,2013-02-23 13:55:00,
2013-02-23 09:00:00,34.5,31.6,29.97,SW,216,0.0,0.0,89,0.00,,,0.00,Wunderground v.1.13,2013-02-23 14:00:00,
2013-02-23 09:05:00,34.8,31.9,29.97,SW,216,0.0,1.0,89,0.00,,,0.00,Wunderground v.1.13,2013-02-23 14:05:00,
2013-02-23 09:15:00,35.2,32.3,29.98,SW,218,0.0,2.0,89,0.00,,,0.00,Wunderground v.1.13,2013-02-23 14:15:00,
2013-02-23 09:25:00,35.5,32.3,29.98,SW,219,0.0,1.0,88,0.00,,,0.00,Wunderground v.1.13,2013-02-23 14:25:00,
2013-02-23 09:30:00,35.5,32.3,29.97,SW,219,0.0,2.0,88,0.00,,,0.00,Wunderground v.1.13,2013-02-23 14:30:00,
2013-02-23 09:40:00,35.8,32.0,29.97,SSW,209,1.0,1.0,86,0.00,,,0.00,Wunderground v.1.13,2013-02-23 14:40:00,
2013-02-23 09:45:00,35.9,32.1,29.97,SW,219,1.0,1.0,86,0.00,,,0.00,Wunderground v.1.13,2013-02-23 14:45:00,
2013-02-23 09:55:00,36.2,32.4,29.97,SW,219,0.0,2.0,86,0.00,,,0.00,Wunderground v.1.13,2013-02-23 14:55:00,
2013-02-23 10:05:00,36.8,32.7,29.97,South,191,0.0,2.0,85,0.00,,,0.00,Wunderground v.1.13,2013-02-23 15:05:00,
2013-02-23 10:15:00,37.3,32.9,29.96,WSW,254,1.0,1.0,84,0.00,,,0.00,Wunderground v.1.13,2013-02-23 15:15:00,
2013-02-23 10:20:00,37.4,33.0,29.97,WSW,254,1.0,1.0,84,0.00,,,0.00,Wunderground v.1.13,2013-02-23 15:20:00,
2013-02-23 10:30:00,37.6,33.2,29.97,WSW,254,0.0,3.0,84,0.00,,,0.00,Wunderground v.1.13,2013-02-23 15:30:00,
2013-02-23 10:40:00,37.6,32.9,29.96,South,171,1.0,2.0,83,0.00,,,0.00,Wunderground v.1.13,2013-02-23 15:40:00,
2013-02-23 10:50:00,37.5,32.8,29.97,SW,219,1.0,4.0,83,0.00,,,0.00,Wunderground v.1.13,2013-02-23 15:50:00,
2013-02-23 11:00:00,37.6,32.9,29.97,SW,226,1.0,1.0,83,0.00,,,0.00,Wunderground v.1.13,2013-02-23 16:00:00,
2013-02-23 11:05:00,37.7,33.3,29.97,SW,227,0.0,2.0,84,0.00,,,0.00,Wunderground v.1.13,2013-02-23 16:05:00,
2013-02-23 11:15:00,37.9,33.2,29.96,SW,233,1.0,3.0,83,0.00,,,0.00,Wunderground v.1.13,2013-02-23 16:15:00,
2013-02-23 11:20:00,37.9,33.5,29.97,SW,232,1.0,3.0,84,0.00,,,0.00,Wunderground v.1.13,2013-02-23 16:20:00,
2013-02-23 11:30:00,38.2,33.8,29.96,SW,221,0.0,2.0,84,0.00,,,0.00,Wunderground v.1.13,2013-02-23 16:30:00,
2013-02-23 11:35:00,38.4,34.0,29.96,SW,217,0.0,2.0,84,0.00,,,0.00,Wunderground v.1.13,2013-02-23 16:35:00,
2013-02-23 11:45:00,38.7,34.0,29.96,SW,217,0.0,1.0,83,0.00,,,0.00,Wunderground v.1.13,2013-02-23 16:45:00,
2013-02-23 11:55:00,39.2,34.5,29.95,SW,217,0.0,2.0,83,0.00,,,0.00,Wunderground v.1.13,2013-02-23 16:55:00,
2013-02-23 12:05:00,39.6,34.6,29.95,SSW,210,0.0,1.0,82,0.00,,,0.00,Wunderground v.1.13,2013-02-23 17:05:00,
2013-02-23 12:15:00,39.9,34.9,29.94,SSW,207,0.0,2.0,82,0.00,,,0.00,Wunderground v.1.13,2013-02-23 17:15:00,
2013-02-23 12:25:00,40.2,34.8,29.94,SSW,205,1.0,5.0,81,0.00,,,0.00,Wunderground v.1.13,2013-02-23 17:25:00,
2013-02-23 12:35:00,40.5,35.1,29.93,SSE,165,0.0,2.0,81,0.00,,,0.00,Wunderground v.1.13,2013-02-23 17:35:00,
2013-02-23 12:45:00,40.7,35.3,29.93,SSE,166,0.0,2.0,81,0.00,,,0.00,Wunderground v.1.13,2013-02-23 17:45:00,
2013-02-23 12:55:00,41.1,35.7,29.92,SSE,166,0.0,3.0,81,0.00,,,0.00,Wunderground v.1.13,2013-02-23 17:55:00,
2013-02-23 13:00:00,41.4,35.7,29.92,SSW,206,1.0,1.0,80,0.00,,,0.00,Wunderground v.1.13,2013-02-23 18:00:00,
2013-02-23 13:05:00,41.5,35.8,29.92,SSW,200,1.0,3.0,80,0.00,,,0.00,Wunderground v.1.13,2013-02-23 18:05:00,
2013-02-23 13:15:00,41.6,35.6,29.92,East,80,0.0,3.0,79,0.00,,,0.00,Wunderground v.1.13,2013-02-23 18:15:00,
2013-02-23 13:20:00,41.5,35.8,29.91,South,175,1.0,1.0,80,0.00,,,0.00,Wunderground v.1.13,2013-02-23 18:20:00,
2013-02-23 13:30:00,42.2,36.5,29.91,SSW,194,1.0,1.0,80,0.00,,,0.00,Wunderground v.1.13,2013-02-23 18:30:00,
2013-02-23 13:40:00,42.9,36.8,29.91,SE,126,1.0,5.0,79,0.00,,,0.00,Wunderground v.1.13,2013-02-23 18:40:00,
2013-02-23 13:45:00,42.9,36.5,29.91,SE,126,1.0,1.0,78,0.00,,,0.00,Wunderground v.1.13,2013-02-23 18:45:00,
2013-02-23 13:55:00,42.8,36.4,29.91,East,84,1.0,1.0,78,0.00,,,0.00,Wunderground v.1.13,2013-02-23 18:55:00,
2013-02-23 14:00:00,42.8,36.7,29.90,SE,142,1.0,1.0,79,0.00,,,0.00,Wunderground v.1.13,2013-02-23 19:00:00,
2013-02-23 14:05:00,42.8,36.4,29.90,SSE,148,0.0,3.0,78,0.00,,,0.00,Wunderground v.1.13,2013-02-23 19:05:00,
2013-02-23 14:15:00,42.8,36.4,29.90,SSE,148,0.0,1.0,78,0.00,,,0.00,Wunderground v.1.13,2013-02-23 19:15:00,
2013-02-23 14:20:00,43.0,36.9,29.90,SSE,148,0.0,1.0,79,0.00,,,0.00,Wunderground v.1.13,2013-02-23 19:20:00,
2013-02-23 14:30:00,43.3,36.9,29.89,SSE,148,0.0,2.0,78,0.00,,,0.00,Wunderground v.1.13,2013-02-23 19:30:00,
2013-02-23 14:35:00,43.3,37.2,29.89,SSE,148,0.0,2.0,79,0.00,,,0.00,Wunderground v.1.13,2013-02-23 19:35:00,
2013-02-23 14:45:00,43.7,37.6,29.88,SSE,148,0.0,1.0,79,0.00,,,0.00,Wunderground v.1.13,2013-02-23 19:45:00,
2013-02-23 14:55:00,44.7,37.9,29.88,SW,225,0.0,1.0,77,0.00,,,0.00,Wunderground v.1.13,2013-02-23 19:55:00,
2013-02-23 15:00:00,45.0,37.9,29.88,SW,225,0.0,3.0,76,0.00,,,0.00,Wunderground v.1.13,2013-02-23 20:00:00,
2013-02-23 15:05:00,45.0,37.6,29.88,SSW,213,0.0,2.0,75,0.00,,,0.00,Wunderground v.1.13,2013-02-23 20:05:00,
2013-02-23 15:15:00,44.9,37.8,29.87,SW,219,1.0,3.0,76,0.00,,,0.00,Wunderground v.1.13,2013-02-23 20:15:00,
2013-02-23 15:25:00,44.9,37.5,29.88,SSE,151,1.0,1.0,75,0.00,,,0.00,Wunderground v.1.13,2013-02-23 20:25:00,
2013-02-23 15:35:00,45.0,37.6,29.88,South,184,1.0,4.0,75,0.00,,,0.00,Wunderground v.1.13,2013-02-23 20:35:00,
2013-02-23 15:40:00,45.0,37.6,29.88,South,187,1.0,4.0,75,0.00,,,0.00,Wunderground v.1.13,2013-02-23 20:40:00,
2013-02-23 15:50:00,45.1,37.6,29.88,SSW,208,2.0,2.0,75,0.00,,,0.00,Wunderground v.1.13,2013-02-23 20:50:00,
2013-02-23 16:00:00,45.0,37.6,29.88,SW,232,2.0,2.0,75,0.00,,,0.00,Wunderground v.1.13,2013-02-23 21:00:00,
2013-02-23 16:05:00,45.1,37.6,29.88,SSW,207,2.0,5.0,75,0.00,,,0.00,Wunderground v.1.13,2013-02-23 21:05:00,
2013-02-23 16:15:00,45.3,37.5,29.88,South,180,1.0,3.0,74,0.00,,,0.00,Wunderground v.1.13,2013-02-23 21:15:00,
2013-02-23 16:25:00,45.4,37.2,29.88,WSW,249,1.0,6.0,73,0.00,,,0.00,Wunderground v.1.13,2013-02-23 21:25:00,
2013-02-23 16:35:00,45.0,36.9,29.88,WSW,257,2.0,5.0,73,0.00,,,0.00,Wunderground v.1.13,2013-02-23 21:35:00,
2013-02-23 16:45:00,44.7,36.6,29.88,WSW,242,2.0,2.0,73,0.00,,,0.00,Wunderground v.1.13,2013-02-23 21:45:00,
2013-02-23 16:55:00,44.5,36.7,29.88,WSW,241,2.0,2.0,74,0.00,,,0.00,Wunderground v.1.13,2013-02-23 21:55:00,
2013-02-23 17:00:00,44.5,36.4,29.88,WSW,237,1.0,1.0,73,0.00,,,0.00,Wunderground v.1.13,2013-02-23 22:00:00,
2013-02-23 17:05:00,44.4,36.3,29.88,WSW,237,0.0,2.0,73,0.00,,,0.00,Wunderground v.1.13,2013-02-23 22:05:00,
2013-02-23 17:15:00,44.3,36.2,29.88,SW,232,0.0,3.0,73,0.00,,,0.00,Wunderground v.1.13,2013-02-23 22:15:00,
2013-02-23 17:25:00,44.1,36.0,29.87,SW,232,0.0,3.0,73,0.00,,,0.00,Wunderground v.1.13,2013-02-23 22:25:00,
2013-02-23 17:30:00,44.0,36.2,29.88,SW,232,0.0,0.0,74,0.00,,,0.00,Wunderground v.1.13,2013-02-23 22:30:00,
2013-02-23 17:35:00,43.8,36.0,29.88,SW,232,0.0,0.0,74,0.00,,,0.00,Wunderground v.1.13,2013-02-23 22:35:00,
2013-02-23 17:45:00,43.3,35.9,29.88,SW,232,0.0,0.0,75,0.00,,,0.00,Wunderground v.1.13,2013-02-23 22:45:00,
2013-02-23 17:55:00,42.4,35.0,29.87,SW,232,0.0,0.0,75,0.00,,,0.00,Wunderground v.1.13,2013-02-23 22:55:00,
2013-02-23 18:05:00,41.1,34.1,29.88,SW,232,0.0,0.0,76,0.00,,,0.00,Wunderground v.1.13,2013-02-23 23:05:00,
2013-02-23 18:15:00,40.1,33.5,29.88,SW,232,0.0,0.0,77,0.00,,,0.00,Wunderground v.1.13,2013-02-23 23:15:00,
2013-02-23 18:25:00,39.3,33.0,29.88,SW,232,0.0,0.0,78,0.00,,,0.00,Wunderground v.1.13,2013-02-23 23:25:00,
2013-02-23 18:30:00,38.9,32.6,29.88,SW,232,0.0,0.0,78,0.00,,,0.00,Wunderground v.1.13,2013-02-23 23:30:00,
2013-02-23 18:40:00,38.3,32.4,29.89,SW,232,0.0,0.0,79,0.00,,,0.00,Wunderground v.1.13,2013-02-23 23:40:00,
2013-02-23 18:50:00,37.5,31.9,29.89,SW,232,0.0,0.0,80,0.00,,,0.00,Wunderground v.1.13,2013-02-23 23:50:00,
2013-02-23 19:00:00,37.0,31.4,29.89,SW,232,0.0,0.0,80,0.00,,,0.00,Wunderground v.1.13,2013-02-24 00:00:00,
2013-02-23 19:05:00,36.7,31.1,29.89,SW,232,0.0,0.0,80,0.00,,,0.00,Wunderground v.1.13,2013-02-24 00:05:00,
2013-02-23 19:15:00,36.1,30.8,29.89,SW,232,0.0,0.0,81,0.00,,,0.00,Wunderground v.1.13,2013-02-24 00:15:00,
2013-02-23 19:25:00,35.5,30.2,29.89,SW,232,0.0,0.0,81,0.00,,,0.00,Wunderground v.1.13,2013-02-24 00:25:00,
2013-02-23 19:35:00,35.0,30.1,29.90,SW,232,0.0,0.0,82,0.00,,,0.00,Wunderground v.1.13,2013-02-24 00:35:00,
2013-02-23 19:40:00,34.7,29.8,29.89,SW,232,0.0,0.0,82,0.00,,,0.00,Wunderground v.1.13,2013-02-24 00:40:00,
2013-02-23 19:50:00,34.4,29.8,29.89,SW,232,0.0,0.0,83,0.00,,,0.00,Wunderground v.1.13,2013-02-24 00:50:00,
2013-02-23 20:00:00,33.9,29.3,29.88,SW,232,0.0,0.0,83,0.00,,,0.00,Wunderground v.1.13,2013-02-24 01:00:00,
2013-02-23 20:05:00,33.7,29.1,29.88,SW,232,0.0,0.0,83,0.00,,,0.00,Wunderground v.1.13,2013-02-24 01:05:00,
2013-02-23 20:15:00,33.3,28.7,29.88,SW,232,0.0,0.0,83,0.00,,,0.00,Wunderground v.1.13,2013-02-24 01:15:00,
2013-02-23 20:20:00,33.2,28.6,29.88,SW,232,0.0,0.0,83,0.00,,,0.00,Wunderground v.1.13,2013-02-24 01:20:00,
2013-02-23 20:30:00,33.0,28.7,29.88,SW,232,0.0,0.0,84,0.00,,,0.00,Wunderground v.1.13,2013-02-24 01:30:00,
2013-02-23 20:40:00,32.8,28.5,29.88,SW,232,0.0,0.0,84,0.00,,,0.00,Wunderground v.1.13,2013-02-24 01:40:00,
2013-02-23 20:45:00,32.7,28.4,29.88,SW,232,0.0,0.0,84,0.00,,,0.00,Wunderground v.1.13,2013-02-24 01:45:00,
2013-02-23 20:55:00,32.3,28.0,29.88,SW,232,0.0,0.0,84,0.00,,,0.00,Wunderground v.1.13,2013-02-24 01:55:00,
2013-02-23 21:05:00,31.9,27.9,29.89,SW,232,0.0,0.0,85,0.00,,,0.00,Wunderground v.1.13,2013-02-24 02:05:00,
2013-02-23 21:15:00,31.8,27.8,29.89,SW,232,0.0,0.0,85,0.00,,,0.00,Wunderground v.1.13,2013-02-24 02:15:00,
2013-02-23 21:20:00,31.7,27.7,29.89,SW,232,0.0,0.0,85,0.00,,,0.00,Wunderground v.1.13,2013-02-24 02:20:00,
2013-02-23 21:30:00,31.7,28.0,29.89,SW,232,0.0,0.0,86,0.00,,,0.00,Wunderground v.1.13,2013-02-24 02:30:00,
2013-02-23 21:40:00,31.5,27.8,29.89,SW,232,0.0,0.0,86,0.00,,,0.00,Wunderground v.1.13,2013-02-24 02:40:00,
2013-02-23 21:50:00,31.2,27.5,29.89,SW,232,0.0,0.0,86,0.00,,,0.00,Wunderground v.1.13,2013-02-24 02:50:00,
2013-02-23 21:55:00,31.0,27.3,29.89,SW,232,0.0,0.0,86,0.00,,,0.00,Wunderground v.1.13,2013-02-24 02:55:00,
2013-02-23 22:05:00,30.8,27.1,29.89,SW,232,0.0,0.0,86,0.00,,,0.00,Wunderground v.1.13,2013-02-24 03:05:00,
2013-02-23 22:15:00,30.6,26.9,29.89,SW,232,0.0,0.0,86,0.00,,,0.00,Wunderground v.1.13,2013-02-24 03:15:00,
2013-02-23 22:25:00,30.4,26.7,29.88,SW,232,0.0,0.0,86,0.00,,,0.00,Wunderground v.1.13,2013-02-24 03:25:00,
2013-02-23 22:35:00,30.2,26.5,29.89,SW,232,0.0,0.0,86,0.00,,,0.00,Wunderground v.1.13,2013-02-24 03:35:00,
2013-02-23 22:45:00,30.1,26.4,29.89,SW,232,0.0,0.0,86,0.00,,,0.00,Wunderground v.1.13,2013-02-24 03:45:00,
2013-02-23 22:50:00,30.1,26.7,29.89,SW,232,0.0,0.0,87,0.00,,,0.00,Wunderground v.1.13,2013-02-24 03:50:00,
2013-02-23 23:00:00,30.2,26.8,29.89,SW,232,0.0,0.0,87,0.00,,,0.00,Wunderground v.1.13,2013-02-24 04:00:00,
2013-02-23 23:05:00,30.3,26.9,29.89,SW,232,0.0,0.0,87,0.00,,,0.00,Wunderground v.1.13,2013-02-24 04:05:00,
2013-02-23 23:15:00,30.3,26.9,29.89,SW,232,0.0,0.0,87,0.00,,,0.00,Wunderground v.1.13,2013-02-24 04:15:00,
2013-02-23 23:25:00,30.3,26.9,29.88,SW,232,0.0,0.0,87,0.00,,,0.00,Wunderground v.1.13,2013-02-24 04:25:00,
2013-02-23 23:35:00,30.3,26.9,29.88,SW,232,0.0,0.0,87,0.00,,,0.00,Wunderground v.1.13,2013-02-24 04:35:00,
2013-02-23 23:45:00,30.1,27.0,29.88,SW,232,0.0,0.0,88,0.00,,,0.00,Wunderground v.1.13,2013-02-24 04:45:00,
2013-02-23 23:55:00,29.9,26.8,29.88,SW,232,0.0,0.0,88,0.00,,,0.00,Wunderground v.1.13,2013-02-24 04:55:00,